Siloam Springs, AR

07:40 CDT je la 25an de oktobro 2014 (GMT -0500)
Lake Forrest Heights | Change Station
CLOSE
Current Station
Personaj Veter-Stacioj
Location: Siloam Springs, AR
Alteco: 1148 ft
Najbaraj veter-stacioj

Elev 1148 ft 36.22 °N, 94.54 °W | Updated 11 minutes ago

Clear
Sennuba
55.2 °F
Sentas kiel 55.2 °F
N
0.7
Vento Varianta Vento from NOr
Gusts 1.6 mej/h

hodiaŭ
High -- | Low -- °F
--% Ebla precip.
hieraŭ
High -- | Low -- °F
Precip. -- co
7:34 AM 6:29 PM
Kreskanta Lunarko, 3% visible
Aerpremo 30.11 co
Vidodistanco 7.0 mejloj
Nuboj Sennuba
Rosopunkto 55 °F
Humido 99%
Pluvokvanto 0.00 co
Neĝprofundo Not available.
UV 0 out of 12
Pollen 3.80 out of 12
Aerkvalito Not available.
Flu Activity Sporadic
METAR KSLG 251235Z AUTO 20006KT 7SM CLR 14/11 A3011 RMK AO1

More Conditions Fewer Conditions

Aerpremo 30.11 co
Vidodistanco 7.0 mejloj
Nuboj Sennuba
Rosopunkto 55 °F
Humido 99%
Pluvokvanto 0.00 co
Neĝprofundo Not available.
UV 0 out of 12
Pollen 3.80 out of 12
Aerkvalito Not available.
Flu Activity Sporadic
METAR KSLG 251235Z AUTO 20006KT 7SM CLR 14/11 A3011 RMK AO1

More Conditions Fewer Conditions

10-Day Weather Forecast

Almanac

Astronomio

Oct. 25, 2014 Leviĝo Subiro
Aktuala tempo 07:34 CDT 18:29 CDT
Civila krepusko 07:07 CDT 18:55 CDT
Naŭtika krepusko 06:37 CDT 19:25 CDT
Astronomia krepusko 06:08 CDT 19:55 CDT
Luno 09:11 CDT 19:55 CDT
Daŭro de videbla lumo 11h 47m
Daŭro de tago
10h 55m
Tomorrow will be 2m 7s shorter.
Kreskanta Lunarko, 3% of the Moon is Illuminated
hodiaŭ
Kreskanta Lunarko
Oct 30
Unua kvaronluno
Nov 6
Plenlumo
Nov 14
Lasta kvaronluno
Nov 22
Nova

Hodiaŭaj ekstremaĵoj

State Highs State Lows

Community

WunderPhotos

Upload Photos

1,764,821 photos uploaded!

Nearby

Neĝa profundeco

Station Depth Alteco
No new snow has been reported.

Earthquake Activity

Urbo Distance Mag. Time & Date
No recent earthquake activity has been reported nearby.
Minimum magnitude displayed is 2.5.

Coastal Water Temperatures

Loko Temperaturo
No Stations Reporting

Najbaraj veter-stacioj